This is the latest recevied weather packets stored in our database for station/object PA3FNT-13. If no packets are shown the sender has not sent any weather packets the latest 10 day(s).
| Time | Temp. | Humidity | Pressure | Rain* | Wind** | Luminosity | Snow |
|---|---|---|---|---|---|---|---|
| 1788196688 | 30.56° C | 36% | 1012 hPa | - | - | - | - |
| 1788195787 | 32.22° C | 34% | 1011.7 hPa | - | - | - | - |
| 1788194887 | 31.67° C | 35% | 1011.6 hPa | - | - | - | - |
| 1788193987 | 31.11° C | 37% | 1011.5 hPa | - | - | - | - |
| 1788193087 | 27.78° C | 43% | 1011.3 hPa | - | - | - | - |
| 1788192187 | 27.22° C | 43% | 1011.1 hPa | - | - | - | - |
| 1788191286 | 27.78° C | 42% | 1011 hPa | - | - | - | - |
| 1788190386 | 27.78° C | 42% | 1010.9 hPa | - | - | - | - |
| 1788189486 | 27.78° C | 42% | 1011 hPa | - | - | - | - |
| 1788188586 | 28.33° C | 41% | 1010.8 hPa | - | - | - | - |
| 1788187686 | 28.89° C | 39% | 1010.5 hPa | - | - | - | - |
| 1788186786 | 29.44° C | 39% | 1010.3 hPa | - | - | - | - |
| 1788185885 | 28.33° C | 40% | 1010 hPa | - | - | - | - |
| 1788184985 | 28.33° C | 40% | 1010 hPa | - | - | - | - |
| 1788184085 | 28.89° C | 39% | 1009.7 hPa | - | - | - | - |
| 1788183185 | 28.89° C | 39% | 1009.6 hPa | - | - | - | - |
| 1788182285 | 30° C | 38% | 1009.4 hPa | - | - | - | - |
| 1788181385 | 28.89° C | 39% | 1009.2 hPa | - | - | - | - |
| 1788180484 | 28.89° C | 39% | 1009 hPa | - | - | - | - |
| 1788179584 | 28.89° C | 40% | 1008.7 hPa | - | - | - | - |
| 1788178684 | 28.89° C | 40% | 1008.8 hPa | - | - | - | - |
| 1788177784 | 29.44° C | 40% | 1008.8 hPa | - | - | - | - |
| 1788176884 | 31.11° C | 37% | 1008.8 hPa | - | - | - | - |
| 1788175984 | 31.11° C | 38% | 1008.8 hPa | - | - | - | - |
| 1788175083 | 28.89° C | 41% | 1008.6 hPa | - | - | - | - |
* Rain since midnight (hover to see other rain measurements)
** Current wind speed in m/s (hover to see current wind gust speed)